Time;durP1;ratioP1;P1;durP2;ratioP2;P2;SDS_P1;SDS_P2;PMS_P1;PMS_P2;Temp;Humidity;BMP_temperature;BMP_pressure;BME280_temperature;BME280_humidity;BME280_pressure;Samples;Min_cycle;Max_cycle;Signal;HPM_P1;HPM_P2
2021/11/17 02:26:13;;;;;;;0.70;0.40;;;6.50;99.90;;;;;;5051359;28;20396;-71
2021/11/17 02:28:55;;;;;;;0.70;0.50;;;6.40;99.90;;;;;;5051366;28;20862;-71
2021/11/17 02:31:23;;;;;;;3.17;1.47;;;6.50;99.90;;;;;;5047600;28;20885;-70
2021/11/17 02:34:08;;;;;;;0.70;0.40;;;6.50;99.90;;;;;;5048118;28;20520;-70
2021/11/17 02:36:43;;;;;;;1.27;1.00;;;6.50;99.90;;;;;;5047856;28;20445;-69
2021/11/17 02:39:39;;;;;;;0.70;0.60;;;6.50;99.90;;;;;;5045672;28;20472;-70
2021/11/17 02:42:27;;;;;;;1.27;1.17;;;6.60;99.90;;;;;;5050585;28;20429;-70
2021/11/17 02:45:12;;;;;;;0.70;0.50;;;6.50;99.90;;;;;;5049446;28;20505;-70
2021/11/17 02:47:38;;;;;;;1.87;0.77;;;6.50;99.90;;;;;;5049021;28;20810;-71
2021/11/17 02:50:20;;;;;;;0.70;0.67;;;6.50;99.90;;;;;;5049721;28;20452;-70
2021/11/17 02:53:11;;;;;;;0.73;0.60;;;6.60;99.90;;;;;;5056140;28;20182;-71
2021/11/17 02:55:58;;;;;;;0.70;0.50;;;6.60;99.90;;;;;;5023178;28;20441;-70
2021/11/17 02:58:40;;;;;;;4.03;1.73;;;6.60;99.90;;;;;;5048666;28;20464;-71
2021/11/17 03:01:09;;;;;;;0.70;0.47;;;6.60;99.90;;;;;;5048762;28;20524;-70
2021/11/17 03:03:40;;;;;;;0.70;0.60;;;6.60;99.90;;;;;;5052308;28;20397;-72
2021/11/17 03:06:19;;;;;;;1.57;1.47;;;6.60;99.90;;;;;;5052196;28;20811;-71
2021/11/17 03:09:06;;;;;;;0.90;0.60;;;6.60;99.90;;;;;;5050941;28;20448;-71
2021/11/17 03:11:52;;;;;;;1.03;0.97;;;6.60;99.90;;;;;;5043507;28;20433;-72
2021/11/17 03:14:21;;;;;;;2.23;2.13;;;6.50;99.90;;;;;;5046341;28;20429;-72
2021/11/17 03:17:33;;;;;;;4.10;1.97;;;6.40;99.90;;;;;;5063692;28;20414;-72
2021/11/17 03:20:26;;;;;;;0.70;0.60;;;6.20;99.90;;;;;;5038195;28;20518;-72
2021/11/17 03:23:13;;;;;;;0.90;0.90;;;6.20;99.90;;;;;;5060072;28;20466;-72
2021/11/17 03:25:51;;;;;;;1.20;1.17;;;6.20;99.90;;;;;;5048155;28;20507;-72
2021/11/17 03:28:42;;;;;;;0.80;0.73;;;6.10;99.90;;;;;;5049521;28;20424;-72
2021/11/17 03:31:14;;;;;;;1.57;1.33;;;6.10;99.90;;;;;;5048600;28;20464;-71
2021/11/17 03:34:01;;;;;;;0.70;0.40;;;6.10;99.90;;;;;;5046042;28;20425;-71
2021/11/17 03:36:42;;;;;;;1.20;1.03;;;6.10;99.90;;;;;;5049531;28;20429;-72
2021/11/17 03:39:25;;;;;;;0.80;0.57;;;6.20;99.90;;;;;;5052219;28;20487;-72
2021/11/17 03:41:57;;;;;;;7.20;1.73;;;6.20;99.90;;;;;;5046119;28;20482;-72
2021/11/17 03:44:52;;;;;;;2.10;2.00;;;6.30;99.90;;;;;;5052119;28;20456;-72
2021/11/17 03:47:32;;;;;;;1.23;1.13;;;6.30;99.90;;;;;;5027493;28;20436;-71
2021/11/17 03:50:18;;;;;;;0.70;0.50;;;6.40;99.90;;;;;;5048834;28;20472;-71
2021/11/17 03:53:01;;;;;;;0.70;0.50;;;6.40;99.90;;;;;;5020669;28;20425;-71
2021/11/17 03:55:54;;;;;;;3.17;0.83;;;6.40;99.90;;;;;;5050884;28;20429;-71
2021/11/17 03:58:29;;;;;;;1.60;1.50;;;6.20;99.90;;;;;;5049263;28;20484;-72
2021/11/17 04:01:33;;;;;;;1.73;1.63;;;6.40;99.90;;;;;;5050232;28;20459;-72
2021/11/17 04:04:14;;;;;;;0.70;0.50;;;6.40;99.90;;;;;;5050899;28;20421;-72
2021/11/17 04:06:59;;;;;;;4.80;2.23;;;6.40;99.90;;;;;;5053156;28;20436;-72
2021/11/17 04:09:45;;;;;;;10.60;1.17;;;6.40;99.90;;;;;;5052343;28;20953;-72
2021/11/17 04:12:41;;;;;;;0.70;0.57;;;6.40;99.90;;;;;;5052398;28;20434;-72
2021/11/17 04:15:47;;;;;;;0.70;0.70;;;6.50;99.90;;;;;;5050977;28;20556;-72
2021/11/17 04:18:40;;;;;;;0.70;0.63;;;6.50;99.90;;;;;;5052983;28;20457;-72
2021/11/17 04:21:24;;;;;;;0.70;0.50;;;6.40;99.90;;;;;;5051906;28;21011;-72
2021/11/17 04:23:57;;;;;;;0.80;0.70;;;6.40;99.90;;;;;;5052200;28;20544;-72
2021/11/17 04:26:57;;;;;;;1.53;1.43;;;6.40;99.90;;;;;;5054534;28;20429;-72
2021/11/17 04:29:51;;;;;;;0.70;0.60;;;6.40;99.90;;;;;;4997003;28;20452;-72
2021/11/17 04:32:16;;;;;;;1.13;1.03;;;6.60;99.90;;;;;;5051735;28;20452;-72
2021/11/17 04:34:54;;;;;;;0.70;0.50;;;6.70;99.90;;;;;;5054732;28;20406;-72
2021/11/17 04:37:32;;;;;;;1.03;1.03;;;6.70;99.90;;;;;;5053148;28;20518;-71
2021/11/17 04:40:06;;;;;;;1.00;0.70;;;6.60;99.90;;;;;;5051185;28;20465;-72
2021/11/17 04:42:32;;;;;;;0.80;0.60;;;6.60;99.90;;;;;;5046941;28;20909;-71
2021/11/17 04:45:19;;;;;;;1.00;0.80;;;6.60;99.90;;;;;;5051669;28;20490;-72
2021/11/17 04:48:08;;;;;;;4.10;1.03;;;6.50;99.90;;;;;;5052783;28;20214;-71
2021/11/17 04:51:11;;;;;;;0.70;0.60;;;6.50;99.90;;;;;;5046635;28;20422;-71
2021/11/17 04:53:55;;;;;;;0.70;0.47;;;6.40;99.90;;;;;;5053790;28;20798;-71
2021/11/17 04:56:39;;;;;;;0.70;0.60;;;6.40;99.90;;;;;;5053591;28;20444;-71
2021/11/17 04:59:08;;;;;;;0.70;0.50;;;6.50;99.90;;;;;;5069738;28;21004;-71
2021/11/17 05:02:10;;;;;;;0.70;0.50;;;6.60;99.90;;;;;;5050462;28;20520;-71
2021/11/17 05:05:02;;;;;;;3.27;2.97;;;6.60;99.90;;;;;;5052333;28;20429;-72
2021/11/17 05:07:46;;;;;;;1.87;1.80;;;6.70;99.90;;;;;;5050721;28;20441;-72
2021/11/17 05:10:33;;;;;;;2.00;1.00;;;6.70;99.90;;;;;;5042156;28;20499;-71
2021/11/17 05:13:33;;;;;;;2.60;1.80;;;6.80;99.90;;;;;;5049410;28;20479;-72
2021/11/17 05:16:05;;;;;;;5.53;1.03;;;6.70;99.90;;;;;;5052499;28;20461;-71
2021/11/17 05:18:33;;;;;;;0.70;0.70;;;6.70;99.90;;;;;;5050627;28;20500;-72
2021/11/17 05:21:31;;;;;;;1.33;0.70;;;6.60;99.90;;;;;;5068251;28;21004;-72
2021/11/17 05:24:22;;;;;;;0.70;0.43;;;6.70;99.90;;;;;;5051741;28;20397;-72
2021/11/17 05:27:24;;;;;;;0.70;0.53;;;6.70;99.90;;;;;;5052692;28;20449;-72
2021/11/17 05:29:53;;;;;;;3.93;2.10;;;6.70;99.90;;;;;;5039723;28;20867;-72
2021/11/17 05:32:45;;;;;;;1.17;1.07;;;6.70;99.90;;;;;;5048675;28;20441;-72
2021/11/17 05:35:39;;;;;;;0.70;0.50;;;6.60;99.90;;;;;;5052350;28;20413;-72
2021/11/17 05:38:23;;;;;;;1.50;1.37;;;6.60;99.90;;;;;;5053333;28;20456;-71
2021/11/17 05:41:05;;;;;;;0.70;0.50;;;6.60;99.90;;;;;;5050721;28;20433;-72
2021/11/17 05:43:53;;;;;;;3.93;3.57;;;6.70;99.90;;;;;;5052766;28;20445;-72
2021/11/17 05:46:28;;;;;;;0.70;0.50;;;6.70;99.90;;;;;;5035197;28;20464;-71
2021/11/17 05:49:06;;;;;;;0.70;0.50;;;6.70;99.90;;;;;;5049177;28;20457;-71
2021/11/17 05:51:54;;;;;;;5.33;1.00;;;6.60;99.90;;;;;;5050469;28;20444;-71
2021/11/17 05:54:44;;;;;;;0.70;0.60;;;6.50;99.90;;;;;;5051415;28;20521;-71
2021/11/17 05:57:21;;;;;;;0.70;0.50;;;6.50;99.90;;;;;;5052366;28;20456;-72
2021/11/17 06:00:07;;;;;;;0.70;0.40;;;6.50;99.90;;;;;;5039979;28;20955;-72
2021/11/17 06:02:54;;;;;;;3.10;0.90;;;6.50;99.90;;;;;;5034338;28;20433;-71
2021/11/17 06:05:19;;;;;;;0.70;0.50;;;6.40;99.90;;;;;;5052612;28;20512;-71
2021/11/17 06:07:44;;;;;;;1.63;1.53;;;6.30;99.90;;;;;;5050048;28;20513;-71
2021/11/17 06:10:21;;;;;;;0.83;0.83;;;6.30;99.90;;;;;;5050250;28;20205;-71
2021/11/17 06:12:48;;;;;;;2.50;1.23;;;6.30;99.90;;;;;;5047736;28;20170;-71
2021/11/17 06:15:16;;;;;;;1.27;1.17;;;6.40;99.90;;;;;;5051186;28;20467;-71
2021/11/17 06:17:45;;;;;;;0.70;0.60;;;6.30;99.90;;;;;;5051953;28;20436;-71
2021/11/17 06:20:13;;;;;;;1.10;1.00;;;6.30;99.90;;;;;;5050767;28;20495;-71
2021/11/17 06:22:43;;;;;;;3.60;1.97;;;6.40;99.90;;;;;;5052916;28;20406;-71
2021/11/17 06:25:10;;;;;;;0.70;0.50;;;6.50;99.90;;;;;;5049808;28;20440;-71
2021/11/17 06:27:40;;;;;;;1.53;1.43;;;6.40;99.90;;;;;;5050543;28;20965;-71
2021/11/17 06:30:07;;;;;;;0.70;0.50;;;6.20;99.90;;;;;;5050608;28;20445;-71
2021/11/17 06:32:32;;;;;;;2.40;0.73;;;6.00;99.90;;;;;;5051403;28;20444;-71
2021/11/17 06:35:01;;;;;;;0.70;0.43;;;5.90;99.90;;;;;;5051280;28;20425;-71
2021/11/17 06:37:29;;;;;;;0.70;0.40;;;5.90;99.90;;;;;;5049486;28;20175;-71
2021/11/17 06:40:01;;;;;;;0.70;0.47;;;5.90;99.90;;;;;;5052344;28;20510;-71
2021/11/17 06:42:34;;;;;;;0.70;0.50;;;5.90;99.90;;;;;;5047904;28;20491;-71
2021/11/17 06:45:01;;;;;;;2.53;2.33;;;5.90;99.90;;;;;;5050572;28;20456;-72
2021/11/17 06:47:26;;;;;;;3.07;1.17;;;6.00;99.90;;;;;;5051056;28;20515;-71
2021/11/17 06:49:53;;;;;;;1.33;0.83;;;6.00;99.90;;;;;;5047997;28;20548;-71
2021/11/17 06:52:20;;;;;;;0.70;0.47;;;5.90;99.90;;;;;;5043705;28;20186;-72
2021/11/17 06:54:46;;;;;;;0.70;0.50;;;5.90;99.90;;;;;;5051089;28;20461;-72
2021/11/17 06:57:11;;;;;;;1.63;0.93;;;5.90;99.90;;;;;;5051207;28;20476;-72
2021/11/17 06:59:37;;;;;;;0.87;0.87;;;6.00;99.90;;;;;;5052003;28;20213;-72
2021/11/17 07:02:05;;;;;;;4.77;1.27;;;6.00;99.90;;;;;;5050943;28;20198;-71
2021/11/17 07:04:33;;;;;;;0.70;0.50;;;6.20;99.90;;;;;;5049035;28;20591;-71
2021/11/17 07:06:59;;;;;;;0.70;0.50;;;6.20;99.90;;;;;;5050327;28;20483;-70
2021/11/17 07:09:24;;;;;;;3.70;0.73;;;6.20;99.90;;;;;;5050922;28;20457;-71
2021/11/17 07:11:50;;;;;;;1.37;1.27;;;6.20;99.90;;;;;;5050053;28;21834;-71
2021/11/17 07:14:16;;;;;;;4.00;2.70;;;6.30;99.90;;;;;;5050001;28;20216;-71
2021/11/17 07:16:42;;;;;;;0.70;0.60;;;6.50;99.90;;;;;;5050337;28;20237;-71
2021/11/17 07:19:10;;;;;;;1.20;1.10;;;6.60;99.90;;;;;;5051983;28;20488;-71
2021/11/17 07:21:37;;;;;;;1.10;1.07;;;6.50;99.90;;;;;;5051248;28;20460;-71
2021/11/17 07:24:03;;;;;;;0.70;0.60;;;6.60;99.90;;;;;;5047593;28;20794;-70
2021/11/17 07:26:29;;;;;;;1.93;1.37;;;6.60;99.90;;;;;;5049851;28;20486;-70
2021/11/17 07:28:55;;;;;;;0.80;0.60;;;6.50;99.90;;;;;;5050914;28;20201;-70
2021/11/17 07:31:21;;;;;;;0.70;0.50;;;6.40;99.90;;;;;;5052662;28;20174;-70
2021/11/17 07:33:47;;;;;;;1.10;0.70;;;6.50;99.90;;;;;;5052295;28;20183;-71
2021/11/17 07:36:13;;;;;;;0.70;0.40;;;6.60;99.90;;;;;;5052255;28;20806;-71
2021/11/17 07:38:39;;;;;;;1.20;0.67;;;6.50;99.90;;;;;;5054310;28;20293;-71
2021/11/17 07:41:05;;;;;;;1.27;1.17;;;6.60;99.90;;;;;;5055318;28;20952;-70
2021/11/17 07:43:31;;;;;;;0.70;0.50;;;6.60;99.90;;;;;;5052618;28;20523;-71
2021/11/17 07:45:56;;;;;;;0.70;0.60;;;6.60;99.90;;;;;;5053607;28;20179;-71
2021/11/17 07:48:25;;;;;;;1.27;1.17;;;6.60;99.90;;;;;;5055800;28;20467;-71
2021/11/17 07:50:52;;;;;;;1.37;1.27;;;6.70;99.90;;;;;;5054938;28;20605;-71
2021/11/17 07:53:20;;;;;;;0.70;0.53;;;6.80;99.90;;;;;;5054564;28;20444;-71
2021/11/17 07:55:49;;;;;;;0.70;0.40;;;6.90;99.90;;;;;;5047305;28;20451;-71
2021/11/17 07:58:16;;;;;;;0.70;0.43;;;7.10;99.90;;;;;;5051663;28;20463;-71
2021/11/17 08:00:45;;;;;;;0.70;0.60;;;7.00;99.90;;;;;;5054071;28;20429;-71
2021/11/17 08:03:11;;;;;;;0.90;0.50;;;7.10;99.90;;;;;;5053643;28;20962;-71
2021/11/17 08:05:39;;;;;;;1.03;0.93;;;7.00;99.90;;;;;;5053239;28;20448;-71
2021/11/17 08:08:05;;;;;;;0.70;0.50;;;7.10;99.90;;;;;;5053933;28;20490;-71
2021/11/17 08:10:36;;;;;;;0.80;0.80;;;7.10;99.90;;;;;;5052226;28;20858;-71
2021/11/17 08:13:02;;;;;;;0.70;0.50;;;7.10;99.90;;;;;;5051826;28;20452;-71
2021/11/17 08:15:28;;;;;;;0.80;0.60;;;7.20;99.90;;;;;;5053780;28;20441;-71
2021/11/17 08:17:53;;;;;;;0.80;0.63;;;7.30;99.90;;;;;;5054069;28;20270;-70
2021/11/17 08:20:19;;;;;;;0.80;0.70;;;7.30;99.90;;;;;;5053396;28;20483;-71
2021/11/17 08:22:49;;;;;;;1.33;1.23;;;7.40;99.90;;;;;;5051357;28;20197;-71
2021/11/17 08:25:16;;;;;;;0.83;0.83;;;7.30;99.90;;;;;;5052925;28;20431;-71
2021/11/17 08:27:42;;;;;;;1.20;0.70;;;7.50;99.90;;;;;;5052758;28;21000;-71
2021/11/17 08:30:10;;;;;;;0.70;0.50;;;7.70;99.90;;;;;;5051767;28;20460;-71
2021/11/17 08:32:37;;;;;;;0.70;0.50;;;7.70;99.90;;;;;;5050101;28;20811;-72
2021/11/17 08:35:05;;;;;;;1.03;0.93;;;7.80;99.90;;;;;;5053126;28;20433;-71
2021/11/17 08:37:31;;;;;;;0.70;0.50;;;7.90;99.90;;;;;;5052496;28;20463;-70
2021/11/17 08:40:01;;;;;;;1.23;1.13;;;8.00;99.90;;;;;;5052310;28;20475;-70
2021/11/17 08:42:26;;;;;;;0.70;0.50;;;7.90;99.90;;;;;;5052836;28;20498;-71
2021/11/17 08:44:52;;;;;;;0.70;0.40;;;7.80;99.90;;;;;;5067342;28;20437;-71
2021/11/17 08:47:19;;;;;;;0.80;0.50;;;7.90;99.90;;;;;;5053377;28;20179;-71
2021/11/17 08:49:45;;;;;;;2.93;1.43;;;7.90;99.90;;;;;;5053135;28;20289;-71
2021/11/17 08:52:12;;;;;;;1.43;0.93;;;7.80;99.90;;;;;;5051338;28;20532;-71
2021/11/17 08:54:39;;;;;;;1.23;1.13;;;7.70;99.90;;;;;;5053635;28;20449;-71
2021/11/17 08:57:06;;;;;;;0.90;0.77;;;7.80;99.90;;;;;;5052958;28;20449;-71
2021/11/17 08:59:32;;;;;;;0.70;0.70;;;7.70;99.90;;;;;;5050515;28;20490;-71
2021/11/17 09:02:03;;;;;;;1.57;1.27;;;7.60;99.90;;;;;;5050812;28;20476;-71
2021/11/17 09:04:28;;;;;;;1.07;0.87;;;7.70;99.90;;;;;;5052018;28;20433;-71
2021/11/17 09:06:54;;;;;;;0.70;0.50;;;7.60;99.90;;;;;;5052427;28;20448;-70
2021/11/17 09:09:20;;;;;;;0.70;0.53;;;7.70;99.90;;;;;;5053981;28;20282;-70
2021/11/17 09:11:46;;;;;;;0.70;0.50;;;7.70;99.90;;;;;;5051347;28;20270;-71
2021/11/17 09:14:12;;;;;;;1.00;0.70;;;7.60;99.90;;;;;;5052982;28;20205;-70
2021/11/17 09:16:40;;;;;;;1.10;1.00;;;7.60;99.90;;;;;;5050206;28;20453;-70
2021/11/17 09:19:06;;;;;;;1.07;0.97;;;7.50;99.90;;;;;;5049019;28;20297;-71
2021/11/17 09:21:34;;;;;;;2.20;0.80;;;7.70;99.90;;;;;;5045896;28;20937;-71
2021/11/17 09:24:06;;;;;;;0.70;0.60;;;7.80;99.90;;;;;;5048869;28;20443;-71
2021/11/17 09:26:32;;;;;;;0.80;0.80;;;7.90;99.90;;;;;;5049048;28;20475;-71
2021/11/17 09:28:59;;;;;;;1.40;1.00;;;8.00;99.90;;;;;;5046558;28;20464;-71
2021/11/17 09:31:27;;;;;;;0.70;0.50;;;8.10;99.90;;;;;;5044690;28;20449;-71
2021/11/17 09:33:54;;;;;;;0.70;0.40;;;8.00;99.90;;;;;;5044968;28;20448;-71
2021/11/17 09:36:22;;;;;;;1.17;0.97;;;8.10;99.90;;;;;;5044103;28;20442;-71
2021/11/17 09:38:52;;;;;;;0.97;0.90;;;8.10;99.90;;;;;;5045356;28;20469;-71
2021/11/17 09:41:22;;;;;;;1.77;0.93;;;8.30;99.90;;;;;;5049346;28;20494;-71
2021/11/17 09:43:52;;;;;;;0.70;0.50;;;8.30;99.90;;;;;;5045782;28;20806;-71
2021/11/17 09:46:20;;;;;;;0.70;0.50;;;8.20;99.90;;;;;;5049264;28;20906;-71
2021/11/17 09:48:53;;;;;;;0.70;0.50;;;8.20;99.90;;;;;;5052099;28;20448;-71
2021/11/17 09:51:27;;;;;;;0.70;0.50;;;8.10;99.90;;;;;;5051846;28;20528;-71
2021/11/17 09:54:00;;;;;;;0.70;0.50;;;8.20;99.90;;;;;;5054163;28;20444;-71
2021/11/17 09:56:44;;;;;;;1.63;1.53;;;8.20;99.90;;;;;;5053125;28;20445;-71
2021/11/17 09:59:22;;;;;;;0.70;0.47;;;8.40;99.90;;;;;;5051581;28;20484;-71
2021/11/17 10:02:15;;;;;;;1.80;1.70;;;8.30;99.90;;;;;;5048679;28;20437;-71
2021/11/17 10:04:53;;;;;;;0.70;0.50;;;8.40;99.90;;;;;;5051854;28;20429;-71
2021/11/17 10:11:08;;;;;;;0.70;0.50;;;8.40;99.90;;;;;;5051603;28;20457;-71
2021/11/17 10:13:24;;;;;;;1.07;0.70;;;8.40;99.90;;;;;;5052734;28;20440;-70
2021/11/17 10:15:52;;;;;;;0.80;0.77;;;8.70;99.90;;;;;;5051750;28;20439;-70
2021/11/17 10:18:19;;;;;;;2.03;1.83;;;8.80;99.90;;;;;;5051293;28;20864;-71
2021/11/17 10:20:47;;;;;;;0.80;0.70;;;8.90;99.90;;;;;;5051329;28;20433;-71
2021/11/17 10:23:26;;;;;;;1.00;0.90;;;8.80;99.90;;;;;;5052775;28;20433;-71
2021/11/17 10:25:51;;;;;;;1.67;0.90;;;8.90;99.90;;;;;;5053010;28;20437;-71
2021/11/17 10:28:48;;;;;;;0.70;0.47;;;8.90;99.90;;;;;;5050842;28;20440;-71
2021/11/17 10:31:22;;;;;;;6.23;1.40;;;8.70;99.90;;;;;;5050806;28;20175;-71
2021/11/17 10:33:57;;;;;;;0.70;0.60;;;8.70;99.90;;;;;;5053125;28;20420;-71
2021/11/17 10:36:31;;;;;;;0.70;0.57;;;8.70;99.90;;;;;;5052201;28;20424;-71
2021/11/17 10:39:16;;;;;;;1.57;1.47;;;8.80;99.90;;;;;;5053726;28;20453;-71
2021/11/17 10:41:58;;;;;;;0.80;0.60;;;8.80;99.90;;;;;;5051788;28;20827;-71
2021/11/17 10:44:56;;;;;;;0.70;0.60;;;8.80;99.90;;;;;;5044678;28;20437;-70
2021/11/17 10:47:27;;;;;;;1.00;0.80;;;8.90;99.90;;;;;;5051600;28;20940;-71
2021/11/17 10:50:13;;;;;;;0.70;0.50;;;9.00;99.90;;;;;;5034086;28;21112;-71
2021/11/17 10:53:01;;;;;;;1.13;1.00;;;9.20;99.90;;;;;;5042926;28;20487;-71
2021/11/17 10:55:47;;;;;;;0.70;0.50;;;9.20;99.90;;;;;;5041477;28;20851;-71
2021/11/17 10:58:18;;;;;;;2.37;0.97;;;9.20;99.90;;;;;;5040492;28;20441;-71
2021/11/17 11:00:48;;;;;;;1.87;1.77;;;9.20;99.90;;;;;;5047419;28;20432;-71
2021/11/17 11:03:16;;;;;;;0.70;0.40;;;9.20;99.90;;;;;;5044676;28;20421;-71
2021/11/17 11:05:48;;;;;;;2.10;1.07;;;9.20;99.90;;;;;;5043332;28;20441;-71
2021/11/17 11:08:25;;;;;;;3.00;0.80;;;9.30;99.90;;;;;;5051363;28;20511;-70
2021/11/17 11:10:57;;;;;;;0.70;0.50;;;9.40;99.90;;;;;;5049859;28;20421;-71
2021/11/17 11:13:40;;;;;;;1.53;0.80;;;9.30;99.90;;;;;;5050961;28;20516;-69
2021/11/17 11:16:23;;;;;;;3.37;1.73;;;9.30;99.90;;;;;;5052520;28;20456;-70
2021/11/17 11:19:14;;;;;;;1.03;0.70;;;9.20;99.90;;;;;;5042989;28;20495;-70
2021/11/17 11:21:45;;;;;;;0.70;0.67;;;9.30;99.90;;;;;;5042689;28;20452;-70
2021/11/17 11:24:26;;;;;;;4.73;1.77;;;9.30;99.90;;;;;;5053538;28;20426;-70
2021/11/17 11:26:57;;;;;;;0.70;0.50;;;9.30;99.90;;;;;;5048412;28;20431;-70
2021/11/17 11:29:29;;;;;;;1.07;1.00;;;9.40;99.90;;;;;;5045239;28;20540;-71
2021/11/17 11:31:59;;;;;;;0.70;0.50;;;9.40;99.90;;;;;;5046493;28;20433;-70
2021/11/17 11:34:30;;;;;;;1.37;1.07;;;9.40;99.90;;;;;;5049730;28;20437;-71
2021/11/17 11:36:56;;;;;;;0.80;0.80;;;9.50;99.90;;;;;;5052527;28;20445;-70
2021/11/17 11:39:21;;;;;;;3.93;0.77;;;9.50;99.90;;;;;;5044404;28;20460;-71
2021/11/17 11:42:10;;;;;;;0.70;0.50;;;9.50;99.90;;;;;;5048269;28;20516;-70
2021/11/17 11:45:12;;;;;;;2.70;2.37;;;9.50;99.90;;;;;;5047506;28;20170;-70
2021/11/17 11:47:50;;;;;;;0.70;0.53;;;9.60;99.90;;;;;;5027645;28;20421;-70
2021/11/17 11:50:31;;;;;;;2.97;0.90;;;9.60;99.90;;;;;;5049584;28;20455;-70
2021/11/17 11:53:03;;;;;;;1.13;1.13;;;9.70;99.90;;;;;;5045147;28;20523;-70
2021/11/17 11:55:52;;;;;;;3.33;2.00;;;9.80;99.90;;;;;;5047558;28;20852;-70
2021/11/17 11:58:20;;;;;;;0.87;0.87;;;9.80;99.90;;;;;;5050567;28;21165;-71
2021/11/17 12:01:08;;;;;;;1.23;1.13;;;9.90;99.90;;;;;;5065416;28;20447;-71
2021/11/17 12:03:37;;;;;;;0.70;0.50;;;9.90;99.90;;;;;;5049836;28;20436;-70
2021/11/17 12:06:29;;;;;;;1.20;1.10;;;9.90;99.90;;;;;;5049225;28;20457;-70
2021/11/17 12:09:06;;;;;;;0.70;0.50;;;9.90;99.90;;;;;;5049631;28;20467;-70
2021/11/17 12:11:32;;;;;;;2.20;1.83;;;10.00;99.90;;;;;;5042884;28;20421;-70
2021/11/17 12:14:10;;;;;;;2.77;2.00;;;10.10;99.90;;;;;;5047311;28;21120;-70
2021/11/17 12:16:42;;;;;;;0.70;0.60;;;10.20;99.90;;;;;;5060087;28;20440;-70
2021/11/17 12:19:13;;;;;;;0.80;0.80;;;10.30;99.90;;;;;;5044528;28;20533;-71
2021/11/17 12:21:41;;;;;;;2.50;1.17;;;10.30;99.90;;;;;;5048613;28;20802;-70
2021/11/17 12:24:11;;;;;;;1.00;0.90;;;10.30;99.90;;;;;;5054464;28;20429;-71
2021/11/17 12:26:43;;;;;;;1.93;1.10;;;10.30;99.90;;;;;;5053041;28;20838;-71
2021/11/17 12:29:20;;;;;;;1.00;0.70;;;10.30;99.90;;;;;;5036567;28;20430;-70
2021/11/17 12:32:19;;;;;;;0.70;0.50;;;10.40;99.90;;;;;;5048420;28;20934;-70
2021/11/17 12:34:44;;;;;;;1.30;1.20;;;10.30;99.90;;;;;;5035875;28;20466;-70
2021/11/17 12:37:27;;;;;;;2.17;1.43;;;10.10;99.90;;;;;;5046667;28;20831;-71
2021/11/17 12:39:59;;;;;;;0.80;0.80;;;10.20;99.90;;;;;;5055315;28;20210;-71
2021/11/17 12:42:27;;;;;;;1.17;1.07;;;10.20;99.90;;;;;;5052848;28;20434;-70
2021/11/17 12:44:54;;;;;;;1.80;1.70;;;10.30;99.90;;;;;;5052302;28;20909;-71
2021/11/17 12:47:46;;;;;;;23.53;3.43;;;10.40;99.90;;;;;;5051550;28;20475;-70
2021/11/17 12:50:17;;;;;;;2.07;1.40;;;10.40;99.90;;;;;;5046862;28;20857;-70
2021/11/17 12:52:54;;;;;;;2.20;2.10;;;10.40;99.90;;;;;;5053889;28;20953;-71
2021/11/17 12:55:40;;;;;;;0.73;0.67;;;10.50;99.90;;;;;;5054881;28;20440;-71
2021/11/17 12:58:11;;;;;;;1.87;0.80;;;10.50;99.90;;;;;;5054270;28;20433;-71
2021/11/17 13:00:51;;;;;;;10.80;2.77;;;10.50;99.90;;;;;;5053925;28;20429;-71
2021/11/17 13:03:42;;;;;;;0.70;0.60;;;10.50;99.90;;;;;;5055192;28;20412;-71
2021/11/17 13:06:22;;;;;;;1.87;1.77;;;10.50;99.90;;;;;;5031316;28;20472;-71
2021/11/17 13:09:19;;;;;;;1.83;0.93;;;10.40;99.90;;;;;;5055254;28;20425;-70
2021/11/17 13:11:49;;;;;;;3.47;1.40;;;10.40;99.90;;;;;;5054855;28;20854;-70
2021/11/17 13:14:47;;;;;;;5.00;3.27;;;10.40;99.90;;;;;;5054606;28;20437;-71
2021/11/17 13:17:17;;;;;;;1.60;1.50;;;10.40;99.90;;;;;;5032524;28;20467;-71
2021/11/17 13:19:52;;;;;;;2.00;1.90;;;10.40;99.90;;;;;;5055562;28;20469;-71
2021/11/17 13:22:34;;;;;;;1.80;1.63;;;10.20;99.90;;;;;;5054651;28;20439;-71
2021/11/17 13:25:21;;;;;;;6.53;1.97;;;10.30;99.90;;;;;;5053743;28;20469;-71
2021/11/17 13:27:55;;;;;;;1.47;0.80;;;10.30;99.90;;;;;;5052045;28;20824;-71
2021/11/17 13:30:29;;;;;;;1.37;0.60;;;10.20;99.90;;;;;;5050881;28;20457;-70
2021/11/17 13:32:56;;;;;;;1.43;1.33;;;10.10;99.90;;;;;;5052355;28;20432;-70
2021/11/17 13:35:43;;;;;;;1.07;1.03;;;10.20;99.90;;;;;;5053088;28;20980;-70
2021/11/17 13:38:16;;;;;;;0.70;0.50;;;10.20;99.90;;;;;;5051954;28;20460;-70
2021/11/17 13:40:45;;;;;;;2.17;1.47;;;10.30;99.90;;;;;;5052961;28;20527;-70
2021/11/17 13:43:12;;;;;;;5.80;1.93;;;10.30;99.90;;;;;;5049647;28;20938;-71
2021/11/17 13:45:39;;;;;;;0.70;0.60;;;10.30;99.90;;;;;;5050201;28;20468;-71
2021/11/17 13:48:05;;;;;;;1.67;1.17;;;10.30;99.90;;;;;;5049637;28;20440;-70
2021/11/17 13:50:35;;;;;;;1.33;1.00;;;10.30;99.90;;;;;;5053103;28;20417;-70
2021/11/17 13:53:06;;;;;;;2.63;1.37;;;10.40;99.90;;;;;;5050767;28;20520;-71
2021/11/17 13:55:34;;;;;;;1.00;0.90;;;10.40;99.90;;;;;;5053344;28;20401;-71
2021/11/17 13:58:02;;;;;;;0.70;0.60;;;10.40;99.90;;;;;;5052675;28;20429;-70
2021/11/17 14:00:28;;;;;;;2.80;1.47;;;10.40;99.90;;;;;;5053298;28;20554;-70
2021/11/17 14:02:54;;;;;;;0.83;0.83;;;10.40;99.90;;;;;;5054272;28;20467;-70
2021/11/17 14:05:21;;;;;;;1.50;1.40;;;10.50;99.90;;;;;;5054078;28;20532;-70
2021/11/17 14:07:48;;;;;;;0.70;0.70;;;10.50;99.90;;;;;;5052604;28;20425;-70
2021/11/17 14:10:17;;;;;;;1.67;0.70;;;10.50;99.90;;;;;;5054342;28;20425;-70
2021/11/17 14:12:43;;;;;;;1.10;1.00;;;10.50;99.90;;;;;;5049341;28;20429;-71
2021/11/17 14:15:09;;;;;;;13.53;3.07;;;10.50;99.90;;;;;;5051204;28;20437;-70
2021/11/17 14:17:35;;;;;;;1.40;1.17;;;10.50;99.90;;;;;;5052971;28;20908;-72
2021/11/17 14:20:03;;;;;;;3.90;0.80;;;10.50;99.90;;;;;;5052479;28;20488;-71
2021/11/17 14:22:28;;;;;;;3.73;3.13;;;10.50;99.90;;;;;;5050314;28;20197;-70
2021/11/17 14:24:58;;;;;;;2.67;2.47;;;10.50;99.90;;;;;;5054175;28;20405;-70
2021/11/17 14:27:24;;;;;;;1.43;1.33;;;10.40;99.90;;;;;;5050074;28;20185;-69
2021/11/17 14:29:56;;;;;;;2.93;1.80;;;10.50;99.90;;;;;;5048100;28;20449;-71
2021/11/17 14:32:30;;;;;;;2.30;2.20;;;10.40;99.90;;;;;;5046776;28;20434;-70
2021/11/17 14:34:57;;;;;;;2.20;1.87;;;10.40;99.90;;;;;;5042892;28;20991;-70
2021/11/17 14:37:23;;;;;;;0.87;0.83;;;10.30;99.90;;;;;;5044477;28;20442;-69
2021/11/17 14:39:49;;;;;;;5.63;2.20;;;10.30;99.90;;;;;;5044788;28;20966;-70
2021/11/17 14:42:15;;;;;;;1.03;1.03;;;10.20;99.90;;;;;;5041165;28;20225;-71
2021/11/17 14:44:41;;;;;;;5.50;1.00;;;10.20;99.90;;;;;;5045719;28;20311;-70
2021/11/17 14:47:07;;;;;;;4.47;1.30;;;10.30;99.90;;;;;;5048875;28;20517;-70
2021/11/17 14:49:33;;;;;;;1.00;1.00;;;10.20;99.90;;;;;;5057796;28;20455;-71
2021/11/17 14:52:02;;;;;;;1.60;1.50;;;10.30;99.90;;;;;;5051913;28;20426;-70
2021/11/17 14:54:27;;;;;;;0.97;0.87;;;10.20;99.90;;;;;;5066716;28;20483;-70
2021/11/17 14:56:53;;;;;;;5.03;1.90;;;10.20;99.90;;;;;;5070201;28;20520;-71
2021/11/17 14:59:19;;;;;;;2.30;1.03;;;10.20;99.90;;;;;;5051793;28;20210;-71
2021/11/17 15:01:44;;;;;;;3.63;3.33;;;10.20;99.90;;;;;;5053047;28;20159;-71
2021/11/17 15:04:10;;;;;;;0.70;0.60;;;10.20;99.90;;;;;;5053296;28;20537;-71
2021/11/17 15:06:38;;;;;;;2.23;1.57;;;10.10;99.90;;;;;;5058292;28;20198;-71
2021/11/17 15:09:07;;;;;;;1.67;0.83;;;10.10;99.90;;;;;;5054246;28;20985;-70
2021/11/17 15:11:50;;;;;;;1.07;0.90;;;10.10;99.90;;;;;;5051793;28;20412;-70
2021/11/17 15:14:16;;;;;;;0.83;0.83;;;10.10;99.90;;;;;;5031925;28;20450;-70
2021/11/17 15:16:44;;;;;;;1.20;1.10;;;10.20;99.90;;;;;;5034689;28;20837;-71
2021/11/17 15:19:09;;;;;;;1.63;1.03;;;10.20;99.90;;;;;;5051488;28;20206;-71
2021/11/17 15:21:35;;;;;;;0.87;0.87;;;10.20;99.90;;;;;;5050531;28;20450;-70
2021/11/17 15:24:01;;;;;;;1.93;0.80;;;10.20;99.90;;;;;;5051686;28;20190;-70
2021/11/17 15:26:26;;;;;;;0.70;0.60;;;10.20;99.90;;;;;;5044937;28;20966;-71
2021/11/17 15:28:55;;;;;;;0.80;0.73;;;10.20;99.90;;;;;;5031727;28;20347;-71
2021/11/17 15:31:25;;;;;;;1.63;1.53;;;10.20;99.90;;;;;;5031784;28;20698;-71
2021/11/17 15:33:51;;;;;;;4.20;3.47;;;10.20;99.90;;;;;;5031613;28;20509;-71
2021/11/17 15:36:17;;;;;;;1.57;1.07;;;10.20;99.90;;;;;;5032820;28;21076;-71
2021/11/17 15:38:45;;;;;;;5.90;5.60;;;10.20;99.90;;;;;;5046449;28;20472;-71
2021/11/17 15:41:14;;;;;;;0.90;0.90;;;10.10;99.90;;;;;;5049849;28;20504;-71
2021/11/17 15:43:41;;;;;;;1.13;1.03;;;10.20;99.90;;;;;;5048981;28;20452;-70
2021/11/17 15:46:07;;;;;;;2.03;1.83;;;10.10;99.90;;;;;;5048582;28;20421;-70
2021/11/17 15:48:35;;;;;;;1.50;1.33;;;10.10;99.90;;;;;;5048954;28;20783;-70
2021/11/17 15:51:08;;;;;;;5.53;1.70;;;10.10;99.90;;;;;;5050995;28;20437;-71
2021/11/17 15:53:34;;;;;;;3.33;1.70;;;10.10;99.90;;;;;;5050270;28;20405;-71
2021/11/17 15:56:00;;;;;;;0.80;0.80;;;10.00;99.90;;;;;;5048747;28;20545;-71
2021/11/17 15:58:25;;;;;;;2.40;2.30;;;10.00;99.90;;;;;;5055075;28;20551;-71